Lillian, Texas
Current Conditions -  °F | °C
As of 4:15 AM on Saturday 20 Dec 2014 (Local Time) from KFWS Reporting Station
Overcast Overcast  
Wind Chill: 43°   Ceiling: 1500
Heat Index: 46°   Visibility: 7mi
Dew Point: 42°   Wind: 6mph
Humidity: 88%   Direction: 350°N
Pressure: 30.22"   Gusts: NA
Location:  32.51°N, 97.19°W
Report Text: KFWS 201015Z AUTO 35005KT 7SM OVC015 08/06 A3022 RMK AO2 T00760058
Loading
Personal Weather Stations






























Interactive Weather Map New forecast layout! Learn more

10-Day Weather Forecast

Advertisements
Track Severe Weather on mobile